sensor_id;sensor_type;location;lat;lon;timestamp;P1;durP1;ratioP1;P2;durP2;ratioP2
3971;SDS011;2000;47.572;14.202;2023-07-02T00:00:00;8.20;;;2.70;;
3971;SDS011;2000;47.572;14.202;2023-07-02T00:02:27;6.90;;;3.53;;
3971;SDS011;2000;47.572;14.202;2023-07-02T00:04:54;10.17;;;2.63;;
3971;SDS011;2000;47.572;14.202;2023-07-02T00:07:22;4.13;;;3.70;;
3971;SDS011;2000;47.572;14.202;2023-07-02T00:09:49;5.57;;;3.03;;
3971;SDS011;2000;47.572;14.202;2023-07-02T00:12:16;9.67;;;3.13;;
3971;SDS011;2000;47.572;14.202;2023-07-02T00:14:43;7.80;;;3.20;;
3971;SDS011;2000;47.572;14.202;2023-07-02T00:17:10;3.47;;;2.67;;
3971;SDS011;2000;47.572;14.202;2023-07-02T00:19:40;3.43;;;3.00;;
3971;SDS011;2000;47.572;14.202;2023-07-02T00:22:08;5.50;;;3.80;;
3971;SDS011;2000;47.572;14.202;2023-07-02T00:24:36;7.60;;;3.60;;
3971;SDS011;2000;47.572;14.202;2023-07-02T00:27:03;3.90;;;2.70;;
3971;SDS011;2000;47.572;14.202;2023-07-02T00:29:30;8.73;;;3.20;;
3971;SDS011;2000;47.572;14.202;2023-07-02T00:31:57;6.50;;;2.77;;
3971;SDS011;2000;47.572;14.202;2023-07-02T00:34:24;4.23;;;3.17;;
3971;SDS011;2000;47.572;14.202;2023-07-02T00:36:51;3.00;;;2.80;;
3971;SDS011;2000;47.572;14.202;2023-07-02T00:39:18;3.07;;;2.77;;
3971;SDS011;2000;47.572;14.202;2023-07-02T00:41:45;4.43;;;2.63;;
3971;SDS011;2000;47.572;14.202;2023-07-02T00:44:15;4.23;;;2.67;;
3971;SDS011;2000;47.572;14.202;2023-07-02T00:46:42;4.67;;;3.83;;
3971;SDS011;2000;47.572;14.202;2023-07-02T00:49:09;4.67;;;2.77;;
3971;SDS011;2000;47.572;14.202;2023-07-02T00:51:36;9.33;;;3.03;;
3971;SDS011;2000;47.572;14.202;2023-07-02T00:54:04;5.30;;;2.67;;
3971;SDS011;2000;47.572;14.202;2023-07-02T00:56:31;4.37;;;2.90;;
3971;SDS011;2000;47.572;14.202;2023-07-02T00:58:58;3.17;;;2.60;;
3971;SDS011;2000;47.572;14.202;2023-07-02T01:01:25;4.63;;;3.27;;
3971;SDS011;2000;47.572;14.202;2023-07-02T01:03:58;3.33;;;3.07;;
3971;SDS011;2000;47.572;14.202;2023-07-02T01:06:26;4.73;;;3.30;;
3971;SDS011;2000;47.572;14.202;2023-07-02T01:08:58;4.20;;;3.43;;
3971;SDS011;2000;47.572;14.202;2023-07-02T01:14:21;10.30;;;4.93;;
3971;SDS011;2000;47.572;14.202;2023-07-02T01:16:53;3.27;;;2.97;;
3971;SDS011;2000;47.572;14.202;2023-07-02T01:19:22;3.57;;;2.93;;
3971;SDS011;2000;47.572;14.202;2023-07-02T01:22:10;6.37;;;3.37;;
3971;SDS011;2000;47.572;14.202;2023-07-02T01:24:41;8.20;;;3.00;;
3971;SDS011;2000;47.572;14.202;2023-07-02T01:27:08;14.23;;;3.00;;
3971;SDS011;2000;47.572;14.202;2023-07-02T01:29:36;3.83;;;2.90;;
3971;SDS011;2000;47.572;14.202;2023-07-02T01:32:03;3.43;;;2.80;;
3971;SDS011;2000;47.572;14.202;2023-07-02T01:34:31;8.80;;;4.50;;
3971;SDS011;2000;47.572;14.202;2023-07-02T01:36:58;6.10;;;3.07;;
3971;SDS011;2000;47.572;14.202;2023-07-02T01:39:25;3.27;;;2.47;;
3971;SDS011;2000;47.572;14.202;2023-07-02T01:41:52;3.97;;;2.80;;
3971;SDS011;2000;47.572;14.202;2023-07-02T01:44:33;4.27;;;2.80;;
3971;SDS011;2000;47.572;14.202;2023-07-02T01:47:00;5.30;;;2.80;;
3971;SDS011;2000;47.572;14.202;2023-07-02T01:49:27;4.50;;;2.83;;
3971;SDS011;2000;47.572;14.202;2023-07-02T01:51:54;5.30;;;3.20;;
3971;SDS011;2000;47.572;14.202;2023-07-02T01:54:23;5.53;;;2.90;;
3971;SDS011;2000;47.572;14.202;2023-07-02T01:56:51;3.97;;;3.00;;
3971;SDS011;2000;47.572;14.202;2023-07-02T01:59:18;4.97;;;2.63;;
3971;SDS011;2000;47.572;14.202;2023-07-02T02:01:44;7.90;;;3.17;;
3971;SDS011;2000;47.572;14.202;2023-07-02T02:04:12;3.80;;;2.80;;
3971;SDS011;2000;47.572;14.202;2023-07-02T02:06:40;3.70;;;3.10;;
3971;SDS011;2000;47.572;14.202;2023-07-02T02:09:07;4.27;;;3.30;;
3971;SDS011;2000;47.572;14.202;2023-07-02T02:11:37;4.30;;;2.97;;
3971;SDS011;2000;47.572;14.202;2023-07-02T02:14:06;3.10;;;2.70;;
3971;SDS011;2000;47.572;14.202;2023-07-02T02:16:33;5.23;;;2.50;;
3971;SDS011;2000;47.572;14.202;2023-07-02T02:19:03;8.17;;;2.80;;
3971;SDS011;2000;47.572;14.202;2023-07-02T02:21:30;3.07;;;2.30;;
3971;SDS011;2000;47.572;14.202;2023-07-02T02:23:57;10.37;;;3.43;;
3971;SDS011;2000;47.572;14.202;2023-07-02T02:26:24;2.50;;;2.30;;
3971;SDS011;2000;47.572;14.202;2023-07-02T02:28:52;3.83;;;3.03;;
3971;SDS011;2000;47.572;14.202;2023-07-02T02:31:19;8.43;;;3.50;;
3971;SDS011;2000;47.572;14.202;2023-07-02T02:33:46;4.50;;;2.90;;
3971;SDS011;2000;47.572;14.202;2023-07-02T02:36:12;3.47;;;2.60;;
3971;SDS011;2000;47.572;14.202;2023-07-02T02:38:39;3.23;;;2.70;;
3971;SDS011;2000;47.572;14.202;2023-07-02T02:41:06;5.10;;;4.13;;
3971;SDS011;2000;47.572;14.202;2023-07-02T02:43:35;4.83;;;3.63;;
3971;SDS011;2000;47.572;14.202;2023-07-02T02:46:02;6.33;;;3.40;;
3971;SDS011;2000;47.572;14.202;2023-07-02T02:48:29;4.33;;;2.90;;
3971;SDS011;2000;47.572;14.202;2023-07-02T02:50:55;10.53;;;3.43;;
3971;SDS011;2000;47.572;14.202;2023-07-02T02:53:22;3.97;;;3.57;;
3971;SDS011;2000;47.572;14.202;2023-07-02T02:55:49;3.37;;;3.07;;
3971;SDS011;2000;47.572;14.202;2023-07-02T02:58:16;3.40;;;2.90;;
3971;SDS011;2000;47.572;14.202;2023-07-02T03:00:43;2.83;;;2.57;;
3971;SDS011;2000;47.572;14.202;2023-07-02T03:03:12;7.53;;;3.50;;
3971;SDS011;2000;47.572;14.202;2023-07-02T03:05:40;4.03;;;2.40;;
3971;SDS011;2000;47.572;14.202;2023-07-02T03:08:07;4.30;;;2.27;;
3971;SDS011;2000;47.572;14.202;2023-07-02T03:10:34;3.00;;;2.40;;
3971;SDS011;2000;47.572;14.202;2023-07-02T03:13:01;9.90;;;2.63;;
3971;SDS011;2000;47.572;14.202;2023-07-02T03:15:28;9.50;;;3.00;;
3971;SDS011;2000;47.572;14.202;2023-07-02T03:17:55;4.90;;;3.20;;
3971;SDS011;2000;47.572;14.202;2023-07-02T03:20:22;10.73;;;2.93;;
3971;SDS011;2000;47.572;14.202;2023-07-02T03:22:49;9.17;;;3.10;;
3971;SDS011;2000;47.572;14.202;2023-07-02T03:25:16;2.90;;;2.53;;
3971;SDS011;2000;47.572;14.202;2023-07-02T03:27:43;6.00;;;3.40;;
3971;SDS011;2000;47.572;14.202;2023-07-02T03:30:10;5.83;;;3.07;;
3971;SDS011;2000;47.572;14.202;2023-07-02T03:32:37;7.83;;;3.37;;
3971;SDS011;2000;47.572;14.202;2023-07-02T03:35:04;9.23;;;3.53;;
3971;SDS011;2000;47.572;14.202;2023-07-02T03:37:31;7.57;;;4.30;;
3971;SDS011;2000;47.572;14.202;2023-07-02T03:39:58;10.10;;;3.53;;
3971;SDS011;2000;47.572;14.202;2023-07-02T03:42:25;6.73;;;2.63;;
3971;SDS011;2000;47.572;14.202;2023-07-02T03:44:52;6.50;;;3.23;;
3971;SDS011;2000;47.572;14.202;2023-07-02T03:47:18;5.83;;;2.70;;
3971;SDS011;2000;47.572;14.202;2023-07-02T03:49:46;9.57;;;3.57;;
3971;SDS011;2000;47.572;14.202;2023-07-02T03:52:14;2.83;;;2.30;;
3971;SDS011;2000;47.572;14.202;2023-07-02T03:54:41;4.77;;;2.37;;
3971;SDS011;2000;47.572;14.202;2023-07-02T03:57:07;2.77;;;2.57;;
3971;SDS011;2000;47.572;14.202;2023-07-02T03:59:34;2.57;;;2.37;;
3971;SDS011;2000;47.572;14.202;2023-07-02T04:02:01;4.70;;;3.47;;
3971;SDS011;2000;47.572;14.202;2023-07-02T04:04:28;7.60;;;3.00;;
3971;SDS011;2000;47.572;14.202;2023-07-02T04:06:55;6.30;;;2.27;;
3971;SDS011;2000;47.572;14.202;2023-07-02T04:09:22;2.90;;;2.30;;
3971;SDS011;2000;47.572;14.202;2023-07-02T04:11:49;4.13;;;2.80;;
3971;SDS011;2000;47.572;14.202;2023-07-02T04:14:16;4.70;;;3.30;;
3971;SDS011;2000;47.572;14.202;2023-07-02T04:16:43;5.47;;;2.90;;
3971;SDS011;2000;47.572;14.202;2023-07-02T04:19:11;3.03;;;2.73;;
3971;SDS011;2000;47.572;14.202;2023-07-02T04:21:38;2.87;;;2.50;;
3971;SDS011;2000;47.572;14.202;2023-07-02T04:24:05;3.50;;;2.73;;
3971;SDS011;2000;47.572;14.202;2023-07-02T04:26:33;8.87;;;2.77;;
3971;SDS011;2000;47.572;14.202;2023-07-02T04:29:20;6.03;;;2.70;;
3971;SDS011;2000;47.572;14.202;2023-07-02T04:31:47;32.20;;;21.77;;
3971;SDS011;2000;47.572;14.202;2023-07-02T04:34:13;24.63;;;14.30;;
3971;SDS011;2000;47.572;14.202;2023-07-02T04:36:40;11.37;;;6.97;;
3971;SDS011;2000;47.572;14.202;2023-07-02T04:39:08;7.00;;;5.10;;
3971;SDS011;2000;47.572;14.202;2023-07-02T04:41:35;6.37;;;5.00;;
3971;SDS011;2000;47.572;14.202;2023-07-02T04:44:02;6.37;;;3.57;;
3971;SDS011;2000;47.572;14.202;2023-07-02T04:46:29;6.13;;;3.40;;
3971;SDS011;2000;47.572;14.202;2023-07-02T04:48:56;9.57;;;4.00;;
3971;SDS011;2000;47.572;14.202;2023-07-02T04:51:23;12.17;;;4.03;;
3971;SDS011;2000;47.572;14.202;2023-07-02T04:53:50;11.27;;;4.30;;
3971;SDS011;2000;47.572;14.202;2023-07-02T04:56:16;4.30;;;3.20;;
3971;SDS011;2000;47.572;14.202;2023-07-02T04:58:43;9.07;;;3.50;;
3971;SDS011;2000;47.572;14.202;2023-07-02T05:01:10;7.47;;;3.37;;
3971;SDS011;2000;47.572;14.202;2023-07-02T05:03:37;5.30;;;3.10;;
3971;SDS011;2000;47.572;14.202;2023-07-02T05:06:04;6.17;;;3.33;;
3971;SDS011;2000;47.572;14.202;2023-07-02T05:08:31;9.33;;;3.30;;
3971;SDS011;2000;47.572;14.202;2023-07-02T05:10:58;6.83;;;3.10;;
3971;SDS011;2000;47.572;14.202;2023-07-02T05:13:25;4.67;;;3.60;;
3971;SDS011;2000;47.572;14.202;2023-07-02T05:15:52;3.67;;;3.00;;
3971;SDS011;2000;47.572;14.202;2023-07-02T05:18:18;5.90;;;3.30;;
3971;SDS011;2000;47.572;14.202;2023-07-02T05:20:45;3.87;;;3.47;;
3971;SDS011;2000;47.572;14.202;2023-07-02T05:23:13;6.93;;;3.20;;
3971;SDS011;2000;47.572;14.202;2023-07-02T05:25:40;5.30;;;3.27;;
3971;SDS011;2000;47.572;14.202;2023-07-02T05:28:07;8.70;;;3.03;;
3971;SDS011;2000;47.572;14.202;2023-07-02T05:30:33;7.57;;;3.70;;
3971;SDS011;2000;47.572;14.202;2023-07-02T05:33:00;6.90;;;3.67;;
3971;SDS011;2000;47.572;14.202;2023-07-02T05:35:27;6.47;;;3.80;;
3971;SDS011;2000;47.572;14.202;2023-07-02T05:37:54;8.23;;;4.17;;
3971;SDS011;2000;47.572;14.202;2023-07-02T05:40:21;8.00;;;4.97;;
3971;SDS011;2000;47.572;14.202;2023-07-02T05:42:47;4.10;;;3.50;;
3971;SDS011;2000;47.572;14.202;2023-07-02T05:45:14;5.20;;;4.63;;
3971;SDS011;2000;47.572;14.202;2023-07-02T05:47:41;8.30;;;3.97;;
3971;SDS011;2000;47.572;14.202;2023-07-02T05:50:08;5.57;;;4.10;;
3971;SDS011;2000;47.572;14.202;2023-07-02T05:52:35;5.27;;;3.80;;
3971;SDS011;2000;47.572;14.202;2023-07-02T05:55:03;5.83;;;2.97;;
3971;SDS011;2000;47.572;14.202;2023-07-02T05:57:30;6.57;;;3.60;;
3971;SDS011;2000;47.572;14.202;2023-07-02T05:59:56;3.60;;;3.30;;
3971;SDS011;2000;47.572;14.202;2023-07-02T06:02:23;4.10;;;3.70;;
3971;SDS011;2000;47.572;14.202;2023-07-02T06:04:50;6.13;;;4.00;;
3971;SDS011;2000;47.572;14.202;2023-07-02T06:07:17;3.93;;;3.43;;
3971;SDS011;2000;47.572;14.202;2023-07-02T06:09:44;4.37;;;3.70;;
3971;SDS011;2000;47.572;14.202;2023-07-02T06:12:11;10.00;;;3.27;;
3971;SDS011;2000;47.572;14.202;2023-07-02T06:14:38;4.70;;;3.40;;
3971;SDS011;2000;47.572;14.202;2023-07-02T06:17:05;8.43;;;3.80;;
3971;SDS011;2000;47.572;14.202;2023-07-02T06:19:34;5.03;;;3.37;;
3971;SDS011;2000;47.572;14.202;2023-07-02T06:22:03;4.10;;;2.80;;
3971;SDS011;2000;47.572;14.202;2023-07-02T06:24:30;6.13;;;3.90;;
3971;SDS011;2000;47.572;14.202;2023-07-02T06:26:57;9.37;;;3.37;;
3971;SDS011;2000;47.572;14.202;2023-07-02T06:29:24;6.83;;;3.00;;
3971;SDS011;2000;47.572;14.202;2023-07-02T06:31:51;3.30;;;3.00;;
3971;SDS011;2000;47.572;14.202;2023-07-02T06:34:17;4.03;;;3.70;;
3971;SDS011;2000;47.572;14.202;2023-07-02T06:36:44;5.00;;;2.60;;
3971;SDS011;2000;47.572;14.202;2023-07-02T06:39:11;10.73;;;3.47;;
3971;SDS011;2000;47.572;14.202;2023-07-02T06:41:38;3.67;;;3.00;;
3971;SDS011;2000;47.572;14.202;2023-07-02T06:44:04;3.37;;;2.90;;
3971;SDS011;2000;47.572;14.202;2023-07-02T06:46:31;2.97;;;2.70;;
3971;SDS011;2000;47.572;14.202;2023-07-02T06:48:59;5.60;;;3.03;;
3971;SDS011;2000;47.572;14.202;2023-07-02T06:51:25;4.83;;;2.90;;
3971;SDS011;2000;47.572;14.202;2023-07-02T06:53:53;5.70;;;3.23;;
3971;SDS011;2000;47.572;14.202;2023-07-02T06:56:20;5.77;;;3.20;;
3971;SDS011;2000;47.572;14.202;2023-07-02T06:58:47;5.37;;;3.33;;
3971;SDS011;2000;47.572;14.202;2023-07-02T07:01:14;4.00;;;2.60;;
3971;SDS011;2000;47.572;14.202;2023-07-02T07:03:41;4.30;;;2.47;;
3971;SDS011;2000;47.572;14.202;2023-07-02T07:06:08;11.43;;;3.53;;
3971;SDS011;2000;47.572;14.202;2023-07-02T07:08:38;3.30;;;2.80;;
3971;SDS011;2000;47.572;14.202;2023-07-02T07:11:07;7.00;;;2.83;;
3971;SDS011;2000;47.572;14.202;2023-07-02T07:13:34;3.70;;;2.60;;
3971;SDS011;2000;47.572;14.202;2023-07-02T07:16:00;3.60;;;2.90;;
3971;SDS011;2000;47.572;14.202;2023-07-02T07:18:27;3.47;;;3.17;;
3971;SDS011;2000;47.572;14.202;2023-07-02T07:20:58;4.80;;;3.00;;
3971;SDS011;2000;47.572;14.202;2023-07-02T07:23:25;2.40;;;2.20;;
3971;SDS011;2000;47.572;14.202;2023-07-02T07:25:52;2.03;;;1.83;;
3971;SDS011;2000;47.572;14.202;2023-07-02T07:28:18;3.27;;;2.13;;
3971;SDS011;2000;47.572;14.202;2023-07-02T07:30:45;2.57;;;2.30;;
3971;SDS011;2000;47.572;14.202;2023-07-02T07:33:13;5.17;;;3.33;;
3971;SDS011;2000;47.572;14.202;2023-07-02T07:35:40;6.13;;;3.50;;
3971;SDS011;2000;47.572;14.202;2023-07-02T07:38:06;4.53;;;3.00;;
3971;SDS011;2000;47.572;14.202;2023-07-02T07:40:33;2.93;;;2.70;;
3971;SDS011;2000;47.572;14.202;2023-07-02T07:43:00;4.33;;;3.40;;
3971;SDS011;2000;47.572;14.202;2023-07-02T07:45:27;4.00;;;2.73;;
3971;SDS011;2000;47.572;14.202;2023-07-02T07:47:54;4.23;;;2.70;;
3971;SDS011;2000;47.572;14.202;2023-07-02T07:50:21;3.80;;;2.80;;
3971;SDS011;2000;47.572;14.202;2023-07-02T07:52:48;4.67;;;3.20;;
3971;SDS011;2000;47.572;14.202;2023-07-02T07:55:15;5.53;;;2.30;;
3971;SDS011;2000;47.572;14.202;2023-07-02T07:57:42;3.30;;;2.83;;
3971;SDS011;2000;47.572;14.202;2023-07-02T08:00:09;2.73;;;2.20;;
3971;SDS011;2000;47.572;14.202;2023-07-02T08:02:36;3.93;;;2.53;;
3971;SDS011;2000;47.572;14.202;2023-07-02T08:05:04;6.93;;;3.20;;
3971;SDS011;2000;47.572;14.202;2023-07-02T08:07:31;5.27;;;2.50;;
3971;SDS011;2000;47.572;14.202;2023-07-02T08:09:59;3.67;;;2.40;;
3971;SDS011;2000;47.572;14.202;2023-07-02T08:12:26;10.83;;;2.63;;
3971;SDS011;2000;47.572;14.202;2023-07-02T08:14:58;5.13;;;2.17;;
3971;SDS011;2000;47.572;14.202;2023-07-02T08:17:25;2.00;;;1.87;;
3971;SDS011;2000;47.572;14.202;2023-07-02T08:19:52;2.40;;;1.77;;
3971;SDS011;2000;47.572;14.202;2023-07-02T08:22:18;5.67;;;1.80;;
3971;SDS011;2000;47.572;14.202;2023-07-02T08:24:45;3.53;;;2.30;;
3971;SDS011;2000;47.572;14.202;2023-07-02T08:27:16;1.93;;;1.83;;
3971;SDS011;2000;47.572;14.202;2023-07-02T08:29:48;4.53;;;2.47;;
3971;SDS011;2000;47.572;14.202;2023-07-02T08:32:15;3.67;;;3.20;;
3971;SDS011;2000;47.572;14.202;2023-07-02T08:34:42;6.73;;;3.63;;
3971;SDS011;2000;47.572;14.202;2023-07-02T08:37:09;4.87;;;2.60;;
3971;SDS011;2000;47.572;14.202;2023-07-02T08:39:37;3.30;;;3.00;;
3971;SDS011;2000;47.572;14.202;2023-07-02T08:42:06;3.30;;;2.33;;
3971;SDS011;2000;47.572;14.202;2023-07-02T08:44:33;2.60;;;2.27;;
3971;SDS011;2000;47.572;14.202;2023-07-02T08:47:02;2.57;;;2.30;;
3971;SDS011;2000;47.572;14.202;2023-07-02T08:49:29;3.33;;;1.80;;
3971;SDS011;2000;47.572;14.202;2023-07-02T08:51:56;2.90;;;1.73;;
3971;SDS011;2000;47.572;14.202;2023-07-02T08:54:23;1.43;;;1.33;;
3971;SDS011;2000;47.572;14.202;2023-07-02T08:56:50;2.47;;;2.00;;
3971;SDS011;2000;47.572;14.202;2023-07-02T08:59:17;7.90;;;2.60;;
3971;SDS011;2000;47.572;14.202;2023-07-02T09:01:51;1.80;;;1.63;;
3971;SDS011;2000;47.572;14.202;2023-07-02T09:04:19;1.23;;;1.23;;
3971;SDS011;2000;47.572;14.202;2023-07-02T09:07:12;1.60;;;1.13;;
3971;SDS011;2000;47.572;14.202;2023-07-02T09:09:48;2.03;;;1.80;;
3971;SDS011;2000;47.572;14.202;2023-07-02T09:12:29;2.50;;;1.20;;
3971;SDS011;2000;47.572;14.202;2023-07-02T09:14:59;1.43;;;1.30;;
3971;SDS011;2000;47.572;14.202;2023-07-02T09:17:36;5.90;;;1.40;;
3971;SDS011;2000;47.572;14.202;2023-07-02T09:20:04;1.47;;;1.13;;
3971;SDS011;2000;47.572;14.202;2023-07-02T09:22:37;1.57;;;1.30;;
3971;SDS011;2000;47.572;14.202;2023-07-02T09:25:05;1.90;;;1.70;;
3971;SDS011;2000;47.572;14.202;2023-07-02T09:27:41;6.37;;;1.83;;
3971;SDS011;2000;47.572;14.202;2023-07-02T09:30:10;1.10;;;1.03;;
3971;SDS011;2000;47.572;14.202;2023-07-02T09:32:40;3.43;;;2.30;;
3971;SDS011;2000;47.572;14.202;2023-07-02T09:35:07;7.50;;;3.87;;
3971;SDS011;2000;47.572;14.202;2023-07-02T09:37:34;2.63;;;2.23;;
3971;SDS011;2000;47.572;14.202;2023-07-02T09:40:01;2.27;;;1.30;;
3971;SDS011;2000;47.572;14.202;2023-07-02T09:42:33;1.07;;;0.90;;
3971;SDS011;2000;47.572;14.202;2023-07-02T09:45:00;3.80;;;1.47;;
3971;SDS011;2000;47.572;14.202;2023-07-02T09:47:29;1.60;;;0.67;;
3971;SDS011;2000;47.572;14.202;2023-07-02T09:50:00;1.13;;;1.00;;
3971;SDS011;2000;47.572;14.202;2023-07-02T09:52:33;0.80;;;0.70;;
3971;SDS011;2000;47.572;14.202;2023-07-02T09:55:01;0.70;;;0.70;;
3971;SDS011;2000;47.572;14.202;2023-07-02T09:57:28;4.27;;;0.93;;
3971;SDS011;2000;47.572;14.202;2023-07-02T10:00:01;2.17;;;1.00;;
3971;SDS011;2000;47.572;14.202;2023-07-02T10:02:29;1.10;;;1.10;;
3971;SDS011;2000;47.572;14.202;2023-07-02T10:04:56;0.70;;;0.70;;
3971;SDS011;2000;47.572;14.202;2023-07-02T10:07:30;1.23;;;0.90;;
3971;SDS011;2000;47.572;14.202;2023-07-02T10:09:58;5.73;;;0.60;;
3971;SDS011;2000;47.572;14.202;2023-07-02T10:12:26;1.13;;;1.03;;
3971;SDS011;2000;47.572;14.202;2023-07-02T10:14:54;0.70;;;0.70;;
3971;SDS011;2000;47.572;14.202;2023-07-02T10:17:28;2.63;;;1.43;;
3971;SDS011;2000;47.572;14.202;2023-07-02T10:19:58;1.10;;;0.93;;
3971;SDS011;2000;47.572;14.202;2023-07-02T10:22:27;0.90;;;0.90;;
3971;SDS011;2000;47.572;14.202;2023-07-02T10:24:57;0.60;;;0.60;;
3971;SDS011;2000;47.572;14.202;2023-07-02T10:27:37;0.60;;;0.60;;
3971;SDS011;2000;47.572;14.202;2023-07-02T10:30:05;1.47;;;0.63;;
3971;SDS011;2000;47.572;14.202;2023-07-02T10:32:34;0.70;;;0.70;;
3971;SDS011;2000;47.572;14.202;2023-07-02T10:35:02;0.73;;;0.70;;
3971;SDS011;2000;47.572;14.202;2023-07-02T10:37:36;5.00;;;1.20;;
3971;SDS011;2000;47.572;14.202;2023-07-02T10:40:05;1.80;;;0.60;;
3971;SDS011;2000;47.572;14.202;2023-07-02T10:42:33;1.83;;;0.77;;
3971;SDS011;2000;47.572;14.202;2023-07-02T10:45:00;0.67;;;0.67;;
3971;SDS011;2000;47.572;14.202;2023-07-02T10:47:27;4.03;;;0.60;;
3971;SDS011;2000;47.572;14.202;2023-07-02T10:49:55;0.50;;;0.50;;
3971;SDS011;2000;47.572;14.202;2023-07-02T10:52:21;7.80;;;0.70;;
3971;SDS011;2000;47.572;14.202;2023-07-02T10:54:48;2.07;;;0.70;;
3971;SDS011;2000;47.572;14.202;2023-07-02T10:57:18;0.80;;;0.80;;
3971;SDS011;2000;47.572;14.202;2023-07-02T10:59:47;1.10;;;0.93;;
3971;SDS011;2000;47.572;14.202;2023-07-02T11:02:14;0.80;;;0.80;;
3971;SDS011;2000;47.572;14.202;2023-07-02T11:04:42;0.50;;;0.50;;
3971;SDS011;2000;47.572;14.202;2023-07-02T11:07:09;1.90;;;0.80;;
3971;SDS011;2000;47.572;14.202;2023-07-02T11:09:37;0.90;;;0.70;;
3971;SDS011;2000;47.572;14.202;2023-07-02T11:12:04;3.17;;;0.60;;
3971;SDS011;2000;47.572;14.202;2023-07-02T11:14:34;0.60;;;0.60;;
3971;SDS011;2000;47.572;14.202;2023-07-02T11:17:03;2.20;;;0.60;;
3971;SDS011;2000;47.572;14.202;2023-07-02T11:19:32;0.57;;;0.57;;
3971;SDS011;2000;47.572;14.202;2023-07-02T11:21:59;2.43;;;0.67;;
3971;SDS011;2000;47.572;14.202;2023-07-02T11:24:27;0.60;;;0.57;;
3971;SDS011;2000;47.572;14.202;2023-07-02T11:26:57;0.90;;;0.77;;
3971;SDS011;2000;47.572;14.202;2023-07-02T11:29:24;0.60;;;0.43;;
3971;SDS011;2000;47.572;14.202;2023-07-02T11:31:51;0.90;;;0.63;;
3971;SDS011;2000;47.572;14.202;2023-07-02T11:34:20;0.43;;;0.40;;
3971;SDS011;2000;47.572;14.202;2023-07-02T11:36:50;1.43;;;0.70;;
3971;SDS011;2000;47.572;14.202;2023-07-02T11:39:20;3.80;;;1.00;;
3971;SDS011;2000;47.572;14.202;2023-07-02T11:41:47;1.77;;;0.83;;
3971;SDS011;2000;47.572;14.202;2023-07-02T11:44:14;0.40;;;0.40;;
3971;SDS011;2000;47.572;14.202;2023-07-02T11:46:42;2.40;;;0.80;;
3971;SDS011;2000;47.572;14.202;2023-07-02T11:49:09;0.67;;;0.67;;
3971;SDS011;2000;47.572;14.202;2023-07-02T11:51:36;0.80;;;0.80;;
3971;SDS011;2000;47.572;14.202;2023-07-02T11:54:03;0.57;;;0.57;;
3971;SDS011;2000;47.572;14.202;2023-07-02T11:56:30;0.60;;;0.60;;
3971;SDS011;2000;47.572;14.202;2023-07-02T11:58:57;0.80;;;0.60;;
3971;SDS011;2000;47.572;14.202;2023-07-02T12:01:26;0.53;;;0.53;;
3971;SDS011;2000;47.572;14.202;2023-07-02T12:03:53;1.00;;;0.77;;
3971;SDS011;2000;47.572;14.202;2023-07-02T12:06:20;2.93;;;0.50;;
3971;SDS011;2000;47.572;14.202;2023-07-02T12:08:47;0.93;;;0.83;;
3971;SDS011;2000;47.572;14.202;2023-07-02T12:11:14;1.00;;;0.90;;
3971;SDS011;2000;47.572;14.202;2023-07-02T12:13:42;4.67;;;0.60;;
3971;SDS011;2000;47.572;14.202;2023-07-02T12:16:09;0.77;;;0.60;;
3971;SDS011;2000;47.572;14.202;2023-07-02T12:18:36;0.70;;;0.70;;
3971;SDS011;2000;47.572;14.202;2023-07-02T12:21:03;1.27;;;0.87;;
3971;SDS011;2000;47.572;14.202;2023-07-02T12:23:29;1.80;;;0.97;;
3971;SDS011;2000;47.572;14.202;2023-07-02T12:25:56;3.07;;;0.77;;
3971;SDS011;2000;47.572;14.202;2023-07-02T12:28:23;1.03;;;0.93;;
3971;SDS011;2000;47.572;14.202;2023-07-02T12:30:50;1.13;;;0.70;;
3971;SDS011;2000;47.572;14.202;2023-07-02T12:33:17;1.90;;;0.93;;
3971;SDS011;2000;47.572;14.202;2023-07-02T12:35:45;2.70;;;0.60;;
3971;SDS011;2000;47.572;14.202;2023-07-02T12:38:13;0.60;;;0.60;;
3971;SDS011;2000;47.572;14.202;2023-07-02T12:40:40;1.00;;;1.00;;
3971;SDS011;2000;47.572;14.202;2023-07-02T12:43:07;1.10;;;1.00;;
3971;SDS011;2000;47.572;14.202;2023-07-02T12:45:34;0.90;;;0.87;;
3971;SDS011;2000;47.572;14.202;2023-07-02T12:48:00;0.70;;;0.67;;
3971;SDS011;2000;47.572;14.202;2023-07-02T12:50:27;6.50;;;0.80;;
3971;SDS011;2000;47.572;14.202;2023-07-02T12:52:54;0.67;;;0.67;;
3971;SDS011;2000;47.572;14.202;2023-07-02T12:55:21;3.43;;;1.40;;
3971;SDS011;2000;47.572;14.202;2023-07-02T12:57:48;0.60;;;0.60;;
3971;SDS011;2000;47.572;14.202;2023-07-02T13:00:15;0.90;;;0.90;;
3971;SDS011;2000;47.572;14.202;2023-07-02T13:02:42;0.90;;;0.90;;
3971;SDS011;2000;47.572;14.202;2023-07-02T13:05:28;8.80;;;1.00;;
3971;SDS011;2000;47.572;14.202;2023-07-02T13:07:55;6.47;;;0.70;;
3971;SDS011;2000;47.572;14.202;2023-07-02T13:10:22;1.30;;;1.07;;
3971;SDS011;2000;47.572;14.202;2023-07-02T13:12:49;2.13;;;0.83;;
3971;SDS011;2000;47.572;14.202;2023-07-02T13:15:16;2.30;;;0.73;;
3971;SDS011;2000;47.572;14.202;2023-07-02T13:17:42;0.87;;;0.83;;
3971;SDS011;2000;47.572;14.202;2023-07-02T13:20:10;0.60;;;0.60;;
3971;SDS011;2000;47.572;14.202;2023-07-02T13:22:37;1.70;;;0.70;;
3971;SDS011;2000;47.572;14.202;2023-07-02T13:25:04;1.17;;;1.07;;
3971;SDS011;2000;47.572;14.202;2023-07-02T13:27:31;1.17;;;1.07;;
3971;SDS011;2000;47.572;14.202;2023-07-02T13:29:58;0.93;;;0.60;;
3971;SDS011;2000;47.572;14.202;2023-07-02T13:32:25;2.63;;;1.00;;
3971;SDS011;2000;47.572;14.202;2023-07-02T13:34:55;1.03;;;0.80;;
3971;SDS011;2000;47.572;14.202;2023-07-02T13:37:22;5.40;;;0.73;;
3971;SDS011;2000;47.572;14.202;2023-07-02T13:39:48;2.07;;;1.10;;
3971;SDS011;2000;47.572;14.202;2023-07-02T13:42:16;1.20;;;0.73;;
3971;SDS011;2000;47.572;14.202;2023-07-02T13:44:43;1.10;;;1.00;;
3971;SDS011;2000;47.572;14.202;2023-07-02T13:47:10;1.83;;;1.20;;
3971;SDS011;2000;47.572;14.202;2023-07-02T13:49:37;1.70;;;1.00;;
3971;SDS011;2000;47.572;14.202;2023-07-02T13:52:04;2.87;;;1.07;;
3971;SDS011;2000;47.572;14.202;2023-07-02T13:54:31;0.70;;;0.70;;
3971;SDS011;2000;47.572;14.202;2023-07-02T13:57:02;3.83;;;1.00;;
3971;SDS011;2000;47.572;14.202;2023-07-02T13:59:29;0.70;;;0.70;;
3971;SDS011;2000;47.572;14.202;2023-07-02T14:01:56;0.90;;;0.83;;
3971;SDS011;2000;47.572;14.202;2023-07-02T14:04:23;1.27;;;1.17;;
3971;SDS011;2000;47.572;14.202;2023-07-02T14:06:50;1.67;;;0.90;;
3971;SDS011;2000;47.572;14.202;2023-07-02T14:09:17;1.10;;;1.10;;
3971;SDS011;2000;47.572;14.202;2023-07-02T14:11:44;1.07;;;0.90;;
3971;SDS011;2000;47.572;14.202;2023-07-02T14:14:11;0.80;;;0.80;;
3971;SDS011;2000;47.572;14.202;2023-07-02T14:16:38;1.07;;;0.90;;
3971;SDS011;2000;47.572;14.202;2023-07-02T14:19:05;1.67;;;1.20;;
3971;SDS011;2000;47.572;14.202;2023-07-02T14:21:32;1.40;;;1.30;;
3971;SDS011;2000;47.572;14.202;2023-07-02T14:23:59;1.93;;;1.10;;
3971;SDS011;2000;47.572;14.202;2023-07-02T14:26:26;2.70;;;1.20;;
3971;SDS011;2000;47.572;14.202;2023-07-02T14:28:53;1.13;;;1.03;;
3971;SDS011;2000;47.572;14.202;2023-07-02T14:31:20;1.90;;;1.30;;
3971;SDS011;2000;47.572;14.202;2023-07-02T14:33:47;2.10;;;1.53;;
3971;SDS011;2000;47.572;14.202;2023-07-02T14:36:14;1.50;;;1.30;;
3971;SDS011;2000;47.572;14.202;2023-07-02T14:38:40;1.40;;;1.27;;
3971;SDS011;2000;47.572;14.202;2023-07-02T14:41:07;1.87;;;1.10;;
3971;SDS011;2000;47.572;14.202;2023-07-02T14:43:34;2.43;;;1.50;;
3971;SDS011;2000;47.572;14.202;2023-07-02T14:46:01;1.57;;;1.27;;
3971;SDS011;2000;47.572;14.202;2023-07-02T14:48:29;3.80;;;1.43;;
3971;SDS011;2000;47.572;14.202;2023-07-02T14:50:57;1.50;;;1.30;;
3971;SDS011;2000;47.572;14.202;2023-07-02T14:53:25;1.73;;;1.53;;
3971;SDS011;2000;47.572;14.202;2023-07-02T14:55:54;2.30;;;1.30;;
3971;SDS011;2000;47.572;14.202;2023-07-02T14:58:22;2.50;;;1.83;;
3971;SDS011;2000;47.572;14.202;2023-07-02T15:00:51;2.03;;;1.80;;
3971;SDS011;2000;47.572;14.202;2023-07-02T15:03:20;1.60;;;1.50;;
3971;SDS011;2000;47.572;14.202;2023-07-02T15:05:49;1.73;;;1.63;;